Terminal Aerodrome Forecast
Issued by NWS

Home | Current Version | Previous Version | Text Only | Print | Product List | Glossary On
Versions: 1 2 3 4 5 6 7 8 9 10 11 12 13 14 15
000
FTUS46 KLOX 052347
TAFVNY
TAF
KVNY 052347Z 0600/0624 15010KT P6SM SKC
     FM060300 VRB03KT P6SM SKC
     FM060800 VRB03KT P6SM OVC010
     FM061200 VRB03KT 5SM BR OVC008
     FM061700 13006KT 5SM BR OVC012
     FM061900 16007KT P6SM FEW018=

USA.gov is the U.S. government's official web portal to all federal, state and local government web resources and services.